createdAt,value
2022-08-04T00:00:37.740Z,24.70
2022-08-04T00:01:39.577Z,24.70
2022-08-04T00:02:37.629Z,24.69
2022-08-04T00:03:38.260Z,24.69
2022-08-04T00:04:37.612Z,24.67
2022-08-04T00:05:37.601Z,24.68
2022-08-04T00:06:38.201Z,24.67
2022-08-04T00:07:43.995Z,24.67
2022-08-04T00:08:38.523Z,24.66
2022-08-04T00:09:37.503Z,24.65
2022-08-04T00:10:37.474Z,24.65
2022-08-04T00:11:37.526Z,24.65
2022-08-04T00:12:39.701Z,24.64
2022-08-04T00:13:37.473Z,24.63
2022-08-04T00:14:40.394Z,24.63
2022-08-04T00:15:38.866Z,24.62
2022-08-04T00:16:38.694Z,24.62
2022-08-04T00:17:37.465Z,24.61
2022-08-04T00:18:37.416Z,24.60
2022-08-04T00:19:37.391Z,24.59
2022-08-04T00:20:37.376Z,24.59
2022-08-04T00:21:37.415Z,24.59
2022-08-04T00:22:37.350Z,24.58
2022-08-04T00:24:11.848Z,24.57
2022-08-04T00:24:38.355Z,24.57
2022-08-04T00:25:37.316Z,24.56
2022-08-04T00:26:37.990Z,24.55
2022-08-04T00:27:37.979Z,24.55
2022-08-04T00:28:37.970Z,24.54
2022-08-04T00:29:37.941Z,24.54
2022-08-04T00:30:37.951Z,24.53
2022-08-04T00:31:56.038Z,24.52
2022-08-04T00:32:40.211Z,24.51
2022-08-04T00:33:37.911Z,24.50
2022-08-04T00:34:37.280Z,24.50
2022-08-04T00:35:37.265Z,24.49
2022-08-04T00:36:37.883Z,24.48
2022-08-04T00:37:37.212Z,24.48
2022-08-04T00:38:37.216Z,24.48
2022-08-04T00:39:37.271Z,24.47
2022-08-04T00:40:37.173Z,24.47
2022-08-04T00:41:39.706Z,24.47
2022-08-04T00:42:38.162Z,24.48
2022-08-04T00:43:38.143Z,24.47
2022-08-04T00:44:37.114Z,24.48
2022-08-04T00:46:15.325Z,24.47
2022-08-04T00:46:40.067Z,24.47
2022-08-04T00:47:37.086Z,24.47
2022-08-04T00:48:37.075Z,24.46
2022-08-04T00:49:39.023Z,24.46
2022-08-04T00:50:37.739Z,24.45
2022-08-04T00:51:37.046Z,24.46
2022-08-04T00:52:37.254Z,24.44
2022-08-04T00:53:37.711Z,24.44
2022-08-04T00:54:36.998Z,24.44
2022-08-04T00:55:37.687Z,24.42
2022-08-04T00:56:37.667Z,24.41
2022-08-04T00:57:37.829Z,24.38
2022-08-04T00:58:37.639Z,24.36
2022-08-04T00:59:37.638Z,24.35
2022-08-04T01:00:37.640Z,24.33
2022-08-04T01:01:36.973Z,24.31
2022-08-04T01:02:36.936Z,24.30
2022-08-04T01:03:38.365Z,24.29
2022-08-04T01:04:36.903Z,24.28
2022-08-04T01:05:37.869Z,24.26
2022-08-04T01:06:36.901Z,24.25
2022-08-04T01:07:36.858Z,24.24
2022-08-04T01:08:36.855Z,24.22
2022-08-04T01:09:36.973Z,24.20
2022-08-04T01:10:36.823Z,24.17
2022-08-04T01:11:57.586Z,24.16
2022-08-04T01:12:37.834Z,24.15
2022-08-04T01:13:36.794Z,24.14
2022-08-04T01:14:36.811Z,24.12
2022-08-04T01:15:53.981Z,24.12
2022-08-04T01:16:38.474Z,24.11
2022-08-04T01:17:37.454Z,24.11
2022-08-04T01:18:36.756Z,24.10
2022-08-04T01:19:37.419Z,24.10
2022-08-04T01:20:37.415Z,24.09
2022-08-04T01:21:36.770Z,24.11
2022-08-04T01:22:38.681Z,24.10
2022-08-04T01:23:36.718Z,24.11
2022-08-04T01:24:37.369Z,24.11
2022-08-04T01:25:38.489Z,24.12
2022-08-04T01:26:42.168Z,24.12
2022-08-04T01:27:40.106Z,24.14
2022-08-04T01:28:42.429Z,24.13
2022-08-04T01:29:44.088Z,24.14
2022-08-04T01:30:39.584Z,24.15
2022-08-04T01:31:37.290Z,24.16
2022-08-04T01:32:36.665Z,24.16
2022-08-04T01:34:03.256Z,24.16
2022-08-04T01:34:38.261Z,24.17
2022-08-04T01:35:48.245Z,24.19
2022-08-04T01:36:37.991Z,24.20
2022-08-04T01:37:38.514Z,24.21
2022-08-04T01:38:36.523Z,24.21
2022-08-04T01:39:37.243Z,24.22
2022-08-04T01:40:36.504Z,24.22
2022-08-04T01:41:37.183Z,24.22
2022-08-04T01:42:37.181Z,24.22
2022-08-04T01:43:36.529Z,24.22
2022-08-04T01:44:36.485Z,24.21
2022-08-04T01:45:36.465Z,24.22
2022-08-04T01:46:36.464Z,24.22
2022-08-04T01:47:37.129Z,24.22
2022-08-04T01:48:37.115Z,24.21
2022-08-04T01:49:40.181Z,24.22
2022-08-04T01:50:36.448Z,24.21
2022-08-04T01:51:36.409Z,24.20
2022-08-04T01:52:36.439Z,24.20
2022-08-04T01:53:37.057Z,24.19
2022-08-04T01:54:36.357Z,24.20
2022-08-04T01:55:55.031Z,24.19
2022-08-04T01:56:37.358Z,24.18
2022-08-04T01:57:39.331Z,24.18
2022-08-04T01:58:36.339Z,24.18
2022-08-04T01:59:36.377Z,24.19
2022-08-04T02:00:36.981Z,24.17
2022-08-04T02:01:37.089Z,24.16
2022-08-04T02:02:36.399Z,24.16
2022-08-04T02:04:18.548Z,24.16
2022-08-04T02:04:38.701Z,24.16
2022-08-04T02:06:02.478Z,24.16
2022-08-04T02:06:37.270Z,24.16
2022-08-04T02:07:36.219Z,24.15
2022-08-04T02:08:36.317Z,24.15
2022-08-04T02:09:36.273Z,24.15
2022-08-04T02:10:37.183Z,24.15
2022-08-04T02:11:36.866Z,24.15
2022-08-04T02:12:36.867Z,24.14
2022-08-04T02:13:36.165Z,24.13
2022-08-04T02:14:36.153Z,24.14
2022-08-04T02:15:36.817Z,24.13
2022-08-04T02:16:36.567Z,24.13
2022-08-04T02:17:38.031Z,24.12
2022-08-04T02:18:36.868Z,24.13
2022-08-04T02:19:36.213Z,24.12
2022-08-04T02:20:36.778Z,24.11
2022-08-04T02:21:42.403Z,24.12
2022-08-04T02:22:39.007Z,24.12
2022-08-04T02:23:36.059Z,24.11
2022-08-04T02:24:36.718Z,24.11
2022-08-04T02:25:36.058Z,24.11
2022-08-04T02:26:36.708Z,24.10
2022-08-04T02:27:59.791Z,24.10
2022-08-04T02:28:38.936Z,24.10
2022-08-04T02:29:36.679Z,24.11
2022-08-04T02:30:37.910Z,24.10
2022-08-04T02:31:35.994Z,24.11
2022-08-04T02:32:35.975Z,24.10
2022-08-04T02:33:36.632Z,24.12
2022-08-04T02:34:36.622Z,24.10
2022-08-04T02:35:35.946Z,24.09
2022-08-04T02:36:35.921Z,24.09
2022-08-04T02:37:36.592Z,24.08
2022-08-04T02:38:36.572Z,24.08
2022-08-04T02:39:47.814Z,24.07
2022-08-04T02:40:37.556Z,24.05
2022-08-04T02:41:36.545Z,24.05
2022-08-04T02:42:36.535Z,24.04
2022-08-04T02:43:51.330Z,24.03
2022-08-04T02:44:37.454Z,24.03
2022-08-04T02:45:36.503Z,24.02
2022-08-04T02:46:35.888Z,24.02
2022-08-04T02:48:23.602Z,24.01
2022-08-04T02:48:37.755Z,24.00
2022-08-04T02:49:35.787Z,24.00
2022-08-04T02:50:35.759Z,23.99
2022-08-04T02:51:35.898Z,23.98
2022-08-04T02:52:38.228Z,23.98
2022-08-04T02:53:35.828Z,23.97
2022-08-04T02:54:35.839Z,23.96
2022-08-04T02:55:36.400Z,23.96
2022-08-04T02:56:37.416Z,23.95
2022-08-04T02:57:36.379Z,23.94
2022-08-04T02:58:37.630Z,23.93
2022-08-04T02:59:36.577Z,23.93
2022-08-04T03:00:35.669Z,23.92
2022-08-04T03:01:36.364Z,23.92
2022-08-04T03:02:36.112Z,23.91
2022-08-04T03:03:36.640Z,23.91
2022-08-04T03:04:36.490Z,23.91
2022-08-04T03:05:57.510Z,23.90
2022-08-04T03:06:38.523Z,23.90
2022-08-04T03:07:36.756Z,23.90
2022-08-04T03:08:36.569Z,23.90
2022-08-04T03:09:38.963Z,23.90
2022-08-04T03:10:36.243Z,23.90
2022-08-04T03:11:35.635Z,23.90
2022-08-04T03:12:36.222Z,23.90
2022-08-04T03:13:36.294Z,23.91
2022-08-04T03:14:35.568Z,23.90
2022-08-04T03:15:36.196Z,23.91
2022-08-04T03:16:38.460Z,23.90
2022-08-04T03:17:36.188Z,23.91
2022-08-04T03:18:38.406Z,23.92
2022-08-04T03:19:36.136Z,23.91
2022-08-04T03:20:36.144Z,23.91
2022-08-04T03:21:35.471Z,23.92
2022-08-04T03:22:41.942Z,23.92
2022-08-04T03:23:36.438Z,23.93
2022-08-04T03:24:36.109Z,23.92
2022-08-04T03:25:35.438Z,23.92
2022-08-04T03:26:38.329Z,23.92
2022-08-04T03:27:36.060Z,23.92
2022-08-04T03:28:35.450Z,23.92
2022-08-04T03:29:37.336Z,23.90
2022-08-04T03:30:36.082Z,23.90
2022-08-04T03:31:36.001Z,23.90
2022-08-04T03:32:36.011Z,23.89
2022-08-04T03:33:37.771Z,23.88
2022-08-04T03:34:35.985Z,23.88
2022-08-04T03:35:35.301Z,23.87
2022-08-04T03:36:35.962Z,23.87
2022-08-04T03:37:35.455Z,23.85
2022-08-04T03:38:35.263Z,23.85
2022-08-04T03:39:35.987Z,23.84
2022-08-04T03:40:35.233Z,23.84
2022-08-04T03:41:51.608Z,23.83
2022-08-04T03:42:36.872Z,23.82
2022-08-04T03:43:57.784Z,23.81
2022-08-04T03:44:37.044Z,23.80
2022-08-04T03:45:35.875Z,23.78
2022-08-04T03:46:35.236Z,23.78
2022-08-04T03:47:35.844Z,23.75
2022-08-04T03:48:37.576Z,23.74
2022-08-04T03:49:36.561Z,23.73
2022-08-04T03:50:38.321Z,23.71
2022-08-04T03:51:36.585Z,23.70
2022-08-04T03:52:36.647Z,23.69
2022-08-04T03:53:35.157Z,23.66
2022-08-04T03:54:36.078Z,23.65
2022-08-04T03:55:35.141Z,23.63
2022-08-04T03:56:35.058Z,23.61
2022-08-04T03:57:35.218Z,23.60
2022-08-04T03:58:35.239Z,23.59
2022-08-04T03:59:37.046Z,23.57
2022-08-04T04:00:36.033Z,23.56
2022-08-04T04:02:01.071Z,23.55
2022-08-04T04:02:37.999Z,23.54
2022-08-04T04:03:35.702Z,23.53
2022-08-04T04:04:35.672Z,23.53
2022-08-04T04:05:58.716Z,23.52
2022-08-04T04:06:38.501Z,23.51
2022-08-04T04:07:36.578Z,23.52
2022-08-04T04:08:35.620Z,23.52
2022-08-04T04:09:56.803Z,23.51
2022-08-04T04:10:36.593Z,23.51
2022-08-04T04:11:35.593Z,23.51
2022-08-04T04:12:35.940Z,23.52
2022-08-04T04:13:34.894Z,23.53
2022-08-04T04:14:35.805Z,23.52
2022-08-04T04:15:35.554Z,23.54
2022-08-04T04:16:35.514Z,23.54
2022-08-04T04:17:36.315Z,23.55
2022-08-04T04:18:35.795Z,23.56
2022-08-04T04:19:34.825Z,23.57
2022-08-04T04:20:34.844Z,23.59
2022-08-04T04:21:34.841Z,23.60
2022-08-04T04:22:38.427Z,23.62
2022-08-04T04:23:35.718Z,23.64
2022-08-04T04:24:35.438Z,23.67
2022-08-04T04:25:35.430Z,23.69
2022-08-04T04:26:34.759Z,23.72
2022-08-04T04:27:34.760Z,23.73
2022-08-04T04:28:46.124Z,23.75
2022-08-04T04:29:36.394Z,23.78
2022-08-04T04:30:35.371Z,23.81
2022-08-04T04:31:35.362Z,23.84
2022-08-04T04:32:36.128Z,23.89
2022-08-04T04:33:35.340Z,23.91
2022-08-04T04:34:35.643Z,23.94
2022-08-04T04:35:35.330Z,23.96
2022-08-04T04:36:35.329Z,23.99
2022-08-04T04:37:35.322Z,24.02
2022-08-04T04:38:35.295Z,24.05
2022-08-04T04:39:35.322Z,24.08
2022-08-04T04:40:35.273Z,24.11
2022-08-04T04:41:35.267Z,24.14
2022-08-04T04:42:35.254Z,24.15
2022-08-04T04:43:51.732Z,24.18
2022-08-04T04:44:35.576Z,24.22
2022-08-04T04:45:35.225Z,24.25
2022-08-04T04:46:35.207Z,24.28
2022-08-04T04:48:07.144Z,24.32
2022-08-04T04:48:37.425Z,24.33
2022-08-04T04:49:35.270Z,24.36
2022-08-04T04:50:36.939Z,24.39
2022-08-04T04:51:35.170Z,24.42
2022-08-04T04:52:35.443Z,24.46
2022-08-04T04:53:35.144Z,24.48
2022-08-04T04:54:34.450Z,24.51
2022-08-04T04:55:35.115Z,24.54
2022-08-04T04:56:34.467Z,24.56
2022-08-04T04:57:54.287Z,24.58
2022-08-04T04:58:36.320Z,24.61
2022-08-04T04:59:35.069Z,24.63
2022-08-04T05:00:35.070Z,24.67
2022-08-04T05:01:35.035Z,24.70
2022-08-04T05:02:35.034Z,24.75
2022-08-04T05:03:35.034Z,24.79
2022-08-04T05:04:35.018Z,24.84
2022-08-04T05:05:35.019Z,24.90
2022-08-04T05:06:35.000Z,24.96
2022-08-04T05:07:34.343Z,25.03
2022-08-04T05:08:45.289Z,25.10
2022-08-04T05:09:35.291Z,25.21
2022-08-04T05:10:34.954Z,25.33
2022-08-04T05:11:34.946Z,25.44
2022-08-04T05:14:33.017Z,25.52
2022-08-04T05:14:37.037Z,25.58
2022-08-04T05:14:41.556Z,25.64
2022-08-04T05:15:34.214Z,25.73
2022-08-04T05:16:34.887Z,25.84
2022-08-04T05:17:34.218Z,25.94
2022-08-04T05:18:34.209Z,26.03
2022-08-04T05:19:34.857Z,26.14
2022-08-04T05:20:34.167Z,26.25
2022-08-04T05:21:34.837Z,26.33
2022-08-04T05:22:34.840Z,26.39
2022-08-04T05:23:34.828Z,26.46
2022-08-04T05:24:35.034Z,26.57
2022-08-04T05:25:34.787Z,26.62
2022-08-04T05:26:34.778Z,26.62
2022-08-04T05:27:39.425Z,26.64
2022-08-04T05:28:35.764Z,26.67
2022-08-04T05:29:34.079Z,26.73
2022-08-04T05:30:34.083Z,26.78
2022-08-04T05:31:34.734Z,26.86
2022-08-04T05:32:34.719Z,26.99
2022-08-04T05:33:34.722Z,27.12
2022-08-04T05:34:34.700Z,27.24
2022-08-04T05:35:47.847Z,27.38
2022-08-04T05:36:41.427Z,27.52
2022-08-04T05:37:36.402Z,27.66
2022-08-04T05:38:33.984Z,27.80
2022-08-04T05:39:34.783Z,27.96
2022-08-04T05:40:33.964Z,28.15
2022-08-04T05:41:44.732Z,28.26
2022-08-04T05:42:35.895Z,28.33
2022-08-04T05:43:33.915Z,28.66
2022-08-04T05:44:34.601Z,29.23
2022-08-04T05:45:38.991Z,29.72
2022-08-04T05:46:35.566Z,29.84
2022-08-04T05:47:35.331Z,29.79
2022-08-04T05:48:34.529Z,29.78
2022-08-04T05:49:34.537Z,29.85
2022-08-04T05:50:34.536Z,30.05
2022-08-04T05:51:34.516Z,30.42
2022-08-04T05:52:34.498Z,30.84
2022-08-04T05:53:34.488Z,31.18
2022-08-04T05:54:34.481Z,31.36
2022-08-04T05:55:48.994Z,31.39
2022-08-04T05:56:35.717Z,31.37
2022-08-04T05:57:34.449Z,31.57
2022-08-04T05:58:34.442Z,32.42
2022-08-04T05:59:34.440Z,33.34
2022-08-04T06:00:41.160Z,33.81
2022-08-04T06:01:56.038Z,34.23
2022-08-04T06:02:34.731Z,34.58
2022-08-04T06:03:34.389Z,34.82
2022-08-04T06:04:33.702Z,34.95
2022-08-04T06:05:34.380Z,35.29
2022-08-04T06:06:34.354Z,35.44
2022-08-04T06:07:34.352Z,35.42
2022-08-04T06:08:34.334Z,35.32
2022-08-04T06:09:33.664Z,35.30
2022-08-04T06:10:34.329Z,35.30
2022-08-04T06:11:59.141Z,35.28
2022-08-04T06:12:36.102Z,35.32
2022-08-04T06:13:47.678Z,35.53
2022-08-04T06:14:37.039Z,35.99
2022-08-04T06:15:33.578Z,36.47
2022-08-04T06:16:34.257Z,37.07
2022-08-04T06:18:33.429Z,37.58
2022-08-04T06:19:59.190Z,37.85
2022-08-04T06:20:01.810Z,37.79
2022-08-04T06:20:35.016Z,37.75
2022-08-04T06:21:33.550Z,37.81
2022-08-04T06:22:34.201Z,37.97
2022-08-04T06:23:34.180Z,38.01
2022-08-04T06:24:36.471Z,37.97
2022-08-04T06:25:34.161Z,37.71
2022-08-04T06:26:35.442Z,37.60
2022-08-04T06:27:34.141Z,37.77
2022-08-04T06:28:35.286Z,38.12
2022-08-04T06:29:34.871Z,38.63
2022-08-04T06:30:34.180Z,38.84
2022-08-04T06:32:28.760Z,39.04
2022-08-04T06:32:41.258Z,39.56
2022-08-04T06:33:55.054Z,39.81
2022-08-04T06:34:35.829Z,39.88
2022-08-04T06:35:33.380Z,40.02
2022-08-04T06:36:34.048Z,40.13
2022-08-04T06:37:42.741Z,40.26
2022-08-04T06:38:35.797Z,40.65
2022-08-04T06:39:33.411Z,41.06
2022-08-04T06:40:34.983Z,41.53
2022-08-04T06:41:33.996Z,41.61
2022-08-04T06:42:33.336Z,41.60
2022-08-04T06:43:33.975Z,41.47
2022-08-04T06:44:34.287Z,41.38
2022-08-04T06:45:33.966Z,41.39
2022-08-04T06:46:33.939Z,41.22
2022-08-04T06:47:33.930Z,40.98
2022-08-04T06:48:33.981Z,41.21
2022-08-04T06:49:55.227Z,41.44
2022-08-04T06:51:32.231Z,41.71
2022-08-04T06:51:45.117Z,41.91
2022-08-04T06:52:34.193Z,41.93
2022-08-04T06:53:33.874Z,42.25
2022-08-04T06:54:33.215Z,42.37
2022-08-04T06:55:33.852Z,42.46
2022-08-04T06:56:33.850Z,42.28
2022-08-04T06:57:33.823Z,42.13
2022-08-04T06:58:33.171Z,42.22
2022-08-04T06:59:33.804Z,42.46
2022-08-04T07:00:33.788Z,42.84
2022-08-04T07:01:33.809Z,43.11
2022-08-04T07:02:33.093Z,43.10
2022-08-04T07:03:33.087Z,43.26
2022-08-04T07:04:33.146Z,43.78
2022-08-04T07:05:33.076Z,44.27
2022-08-04T07:06:33.808Z,44.62
2022-08-04T07:07:36.666Z,44.04
2022-08-04T07:08:34.046Z,44.15
2022-08-04T07:09:33.723Z,44.35
2022-08-04T07:10:34.950Z,44.04
2022-08-04T07:11:39.188Z,44.07
2022-08-04T07:12:35.990Z,44.52
2022-08-04T07:13:33.251Z,44.32
2022-08-04T07:14:33.660Z,44.22
2022-08-04T07:15:32.973Z,44.45
2022-08-04T07:16:33.641Z,44.81
2022-08-04T07:17:34.751Z,44.83
2022-08-04T07:18:33.611Z,44.20
2022-08-04T07:19:33.602Z,44.27
2022-08-04T07:20:36.219Z,43.71
2022-08-04T07:21:32.914Z,43.88
2022-08-04T07:22:33.574Z,43.67
2022-08-04T07:23:33.606Z,43.67
2022-08-04T07:24:34.425Z,43.62
2022-08-04T07:25:59.888Z,43.62
2022-08-04T07:26:35.776Z,43.48
2022-08-04T07:27:47.719Z,43.56
2022-08-04T07:28:35.766Z,43.69
2022-08-04T07:29:32.888Z,44.35
2022-08-04T07:30:33.477Z,44.96
2022-08-04T07:31:34.572Z,45.57
2022-08-04T07:32:33.469Z,46.09
2022-08-04T07:33:33.464Z,46.58
2022-08-04T07:34:33.459Z,46.78
2022-08-04T07:36:05.694Z,47.25
2022-08-04T07:36:41.971Z,47.67
2022-08-04T07:37:39.038Z,47.58
2022-08-04T07:38:37.807Z,47.77
2022-08-04T07:39:47.691Z,47.01
2022-08-04T07:40:33.702Z,46.22
2022-08-04T07:41:36.166Z,44.91
2022-08-04T07:42:32.729Z,44.13
2022-08-04T07:43:32.705Z,43.43
2022-08-04T07:44:32.700Z,43.72
2022-08-04T07:45:33.334Z,44.63
2022-08-04T07:46:33.338Z,45.31
2022-08-04T07:47:33.332Z,45.75
2022-08-04T07:48:32.674Z,45.30
2022-08-04T07:49:55.502Z,45.93
2022-08-04T07:50:34.284Z,46.45
2022-08-04T07:51:32.637Z,46.62
2022-08-04T07:52:34.862Z,46.72
2022-08-04T07:53:54.144Z,46.96
2022-08-04T07:54:33.560Z,47.21
2022-08-04T07:55:33.241Z,46.98
2022-08-04T07:56:33.233Z,46.61
2022-08-04T07:57:40.181Z,46.88
2022-08-04T07:58:34.211Z,47.34
2022-08-04T07:59:33.210Z,47.21
2022-08-04T08:00:33.190Z,47.67
2022-08-04T08:01:32.490Z,48.36
2022-08-04T08:02:32.490Z,48.85
2022-08-04T08:03:33.224Z,48.69
2022-08-04T08:04:33.141Z,49.32
2022-08-04T08:05:32.501Z,49.61
2022-08-04T08:06:36.443Z,49.46
2022-08-04T08:07:34.376Z,49.87
2022-08-04T08:08:33.853Z,50.08
2022-08-04T08:09:33.095Z,50.38
2022-08-04T08:10:33.118Z,50.50
2022-08-04T08:12:36.714Z,50.44
2022-08-04T08:12:37.593Z,50.44
2022-08-04T08:13:33.404Z,50.13
2022-08-04T08:14:33.352Z,49.87
2022-08-04T08:15:32.387Z,50.01
2022-08-04T08:16:32.371Z,49.95
2022-08-04T08:17:32.997Z,49.93
2022-08-04T08:18:33.316Z,48.96
2022-08-04T08:19:33.770Z,47.29
2022-08-04T08:20:33.087Z,45.88
2022-08-04T08:21:32.318Z,44.85
2022-08-04T08:22:32.288Z,44.29
2022-08-04T08:23:32.968Z,45.00
2022-08-04T08:24:32.949Z,44.96
2022-08-04T08:25:32.268Z,44.39
2022-08-04T08:26:32.930Z,44.09
2022-08-04T08:27:32.265Z,45.12
2022-08-04T08:28:32.214Z,45.75
2022-08-04T08:29:32.262Z,44.98
2022-08-04T08:30:33.717Z,45.78
2022-08-04T08:31:57.302Z,46.56
2022-08-04T08:32:33.872Z,47.03
2022-08-04T08:33:32.182Z,47.59
2022-08-04T08:34:32.180Z,47.60
2022-08-04T08:35:32.825Z,47.89
2022-08-04T08:36:33.835Z,48.31
2022-08-04T08:37:32.145Z,47.82
2022-08-04T08:38:32.149Z,48.12
2022-08-04T08:39:32.179Z,47.29
2022-08-04T08:40:40.654Z,47.04
2022-08-04T08:41:34.590Z,47.24
2022-08-04T08:42:32.778Z,46.90
2022-08-04T08:44:05.091Z,46.64
2022-08-04T08:44:37.396Z,46.46
2022-08-04T08:45:33.998Z,46.59
2022-08-04T08:46:48.349Z,46.92
2022-08-04T08:48:05.927Z,47.04
2022-08-04T08:48:33.229Z,47.31
2022-08-04T08:50:02.710Z,47.48
2022-08-04T08:50:35.446Z,47.28
2022-08-04T08:51:31.990Z,46.77
2022-08-04T08:53:00.786Z,46.44
2022-08-04T08:53:34.454Z,46.36
2022-08-04T08:54:32.642Z,46.35
2022-08-04T08:55:31.964Z,46.29
2022-08-04T08:56:32.698Z,46.07
2022-08-04T08:57:32.000Z,45.34
2022-08-04T08:58:32.645Z,44.53
2022-08-04T08:59:31.982Z,43.89
2022-08-04T09:00:32.600Z,43.46
2022-08-04T09:01:32.643Z,43.36
2022-08-04T09:02:31.886Z,43.56
2022-08-04T09:03:33.549Z,44.05
2022-08-04T09:04:32.650Z,44.39
2022-08-04T09:05:32.539Z,44.73
2022-08-04T09:06:32.526Z,44.98
2022-08-04T09:07:32.527Z,45.01
2022-08-04T09:08:31.858Z,45.00
2022-08-04T09:09:32.520Z,45.13
2022-08-04T09:10:34.263Z,45.20
2022-08-04T09:11:32.491Z,45.29
2022-08-04T09:12:31.806Z,45.15
2022-08-04T09:13:31.784Z,45.04
2022-08-04T09:14:33.231Z,45.15
2022-08-04T09:15:32.444Z,45.20
2022-08-04T09:16:32.431Z,45.19
2022-08-04T09:17:32.401Z,45.29
2022-08-04T09:18:31.745Z,45.29
2022-08-04T09:19:38.457Z,45.17
2022-08-04T09:20:34.642Z,45.27
2022-08-04T09:21:31.703Z,45.30
2022-08-04T09:22:31.705Z,45.41
2022-08-04T09:23:32.352Z,45.55
2022-08-04T09:24:36.134Z,45.67
2022-08-04T09:25:32.333Z,45.76
2022-08-04T09:26:31.654Z,45.89
2022-08-04T09:27:32.326Z,46.04
2022-08-04T09:28:53.097Z,46.20
2022-08-04T09:29:32.759Z,46.37
2022-08-04T09:30:32.288Z,46.56
2022-08-04T09:31:49.068Z,46.72
2022-08-04T09:32:34.526Z,46.87
2022-08-04T09:33:44.933Z,47.04
2022-08-04T09:34:33.879Z,47.15
2022-08-04T09:35:32.236Z,47.30
2022-08-04T09:36:32.989Z,47.40
2022-08-04T09:37:31.561Z,47.46
2022-08-04T09:38:31.717Z,47.47
2022-08-04T09:39:32.305Z,47.48
2022-08-04T09:40:52.406Z,47.50
2022-08-04T09:41:49.564Z,47.40
2022-08-04T09:42:33.421Z,47.40
2022-08-04T09:43:58.786Z,47.37
2022-08-04T09:44:50.090Z,47.38
2022-08-04T09:45:43.233Z,47.47
2022-08-04T09:46:32.444Z,47.55
2022-08-04T09:47:40.058Z,47.62
2022-08-04T09:48:32.426Z,47.55
2022-08-04T09:49:32.104Z,47.19
2022-08-04T09:50:32.119Z,46.92
2022-08-04T09:51:58.143Z,46.82
2022-08-04T09:52:34.456Z,46.55
2022-08-04T09:53:31.395Z,46.26
2022-08-04T09:54:32.058Z,46.09
2022-08-04T09:55:32.056Z,46.26
2022-08-04T09:56:32.051Z,46.41
2022-08-04T09:57:32.055Z,46.59
2022-08-04T09:58:32.840Z,46.77
2022-08-04T09:59:32.013Z,46.95
2022-08-04T10:00:40.546Z,47.10
2022-08-04T10:01:32.300Z,47.29
2022-08-04T10:02:31.365Z,47.40
2022-08-04T10:03:32.070Z,47.47
2022-08-04T10:04:31.300Z,47.62
2022-08-04T10:05:31.953Z,47.77
2022-08-04T10:06:31.941Z,47.93
2022-08-04T10:07:31.271Z,47.92
2022-08-04T10:08:31.232Z,48.05
2022-08-04T10:09:31.243Z,48.18
2022-08-04T10:10:31.903Z,48.26
2022-08-04T10:11:31.231Z,48.34
2022-08-04T10:12:31.214Z,48.48
2022-08-04T10:13:31.874Z,48.68
2022-08-04T10:14:31.232Z,48.99
2022-08-04T10:15:31.197Z,49.30
2022-08-04T10:16:31.217Z,49.72
2022-08-04T10:17:31.176Z,50.05
2022-08-04T10:18:31.143Z,49.74
2022-08-04T10:19:31.825Z,49.02
2022-08-04T10:20:36.619Z,48.32
2022-08-04T10:21:32.901Z,47.73
2022-08-04T10:22:40.654Z,47.49
2022-08-04T10:23:32.083Z,48.15
2022-08-04T10:24:32.774Z,48.79
2022-08-04T10:25:42.624Z,49.35
2022-08-04T10:26:32.080Z,49.95
2022-08-04T10:27:31.174Z,50.31
2022-08-04T10:28:32.973Z,50.76
2022-08-04T10:29:31.042Z,51.28
2022-08-04T10:30:31.042Z,51.57
2022-08-04T10:31:31.033Z,51.95
2022-08-04T10:32:31.003Z,52.29
2022-08-04T10:33:31.031Z,52.76
2022-08-04T10:34:31.004Z,53.25
2022-08-04T10:35:30.996Z,53.73
2022-08-04T10:36:30.975Z,54.15
2022-08-04T10:37:59.489Z,54.42
2022-08-04T10:38:31.993Z,54.61
2022-08-04T10:39:41.893Z,54.74
2022-08-04T10:40:31.930Z,54.84
2022-08-04T10:41:30.935Z,54.94
2022-08-04T10:42:32.817Z,54.87
2022-08-04T10:43:30.916Z,54.92
2022-08-04T10:44:30.938Z,54.90
2022-08-04T10:45:33.845Z,54.83
2022-08-04T10:46:30.869Z,54.44
2022-08-04T10:47:30.857Z,53.50
2022-08-04T10:48:34.576Z,53.30
2022-08-04T10:49:31.551Z,52.72
2022-08-04T10:50:31.570Z,51.70
2022-08-04T10:51:30.811Z,49.95
2022-08-04T10:52:33.791Z,49.06
2022-08-04T10:53:32.230Z,48.14
2022-08-04T10:54:30.810Z,47.25
2022-08-04T10:56:05.749Z,46.47
2022-08-04T10:56:31.805Z,45.88
2022-08-04T10:57:30.773Z,45.45
2022-08-04T10:58:47.557Z,45.09
2022-08-04T10:59:31.783Z,44.76
2022-08-04T11:00:32.682Z,44.50
2022-08-04T11:02:02.110Z,44.28
2022-08-04T11:02:32.898Z,44.02
2022-08-04T11:03:30.707Z,43.78
2022-08-04T11:04:30.699Z,43.57
2022-08-04T11:05:30.686Z,43.36
2022-08-04T11:06:31.400Z,43.20
2022-08-04T11:07:31.345Z,43.06
2022-08-04T11:08:30.718Z,42.91
2022-08-04T11:09:31.350Z,42.73
2022-08-04T11:10:30.638Z,42.57
2022-08-04T11:11:30.628Z,42.42
2022-08-04T11:12:31.308Z,42.29
2022-08-04T11:13:30.716Z,42.12
2022-08-04T11:14:30.658Z,41.97
2022-08-04T11:15:32.019Z,41.87
2022-08-04T11:16:30.582Z,41.74
2022-08-04T11:17:30.593Z,41.64
2022-08-04T11:18:33.010Z,41.55
2022-08-04T11:19:44.811Z,41.52
2022-08-04T11:20:34.973Z,41.53
2022-08-04T11:21:31.464Z,41.53
2022-08-04T11:22:31.240Z,41.50
2022-08-04T11:23:31.191Z,41.47
2022-08-04T11:24:30.525Z,41.44
2022-08-04T11:25:31.195Z,41.38
2022-08-04T11:26:32.375Z,41.27
2022-08-04T11:27:31.164Z,41.16
2022-08-04T11:28:32.742Z,41.03
2022-08-04T11:29:30.481Z,40.88
2022-08-04T11:30:31.129Z,40.72
2022-08-04T11:31:30.437Z,40.53
2022-08-04T11:32:31.096Z,40.36
2022-08-04T11:33:30.408Z,40.20
2022-08-04T11:34:31.093Z,40.03
2022-08-04T11:35:31.097Z,39.88
2022-08-04T11:36:31.061Z,39.77
2022-08-04T11:37:30.481Z,39.69
2022-08-04T11:38:32.433Z,39.66
2022-08-04T11:39:32.962Z,39.69
2022-08-04T11:40:30.342Z,39.73
2022-08-04T11:41:31.014Z,39.71
2022-08-04T11:42:30.339Z,39.76
2022-08-04T11:44:00.761Z,39.81
2022-08-04T11:44:33.278Z,39.81
2022-08-04T11:45:32.733Z,39.79
2022-08-04T11:46:30.966Z,39.75
2022-08-04T11:47:30.954Z,39.68
2022-08-04T11:48:31.720Z,39.67
2022-08-04T11:49:30.926Z,39.68
2022-08-04T11:50:30.910Z,39.72
2022-08-04T11:51:30.913Z,39.77
2022-08-04T11:52:30.904Z,39.81
2022-08-04T11:53:36.934Z,39.85
2022-08-04T11:54:32.645Z,39.89
2022-08-04T11:55:30.875Z,39.95
2022-08-04T11:56:36.086Z,40.05
2022-08-04T11:57:35.832Z,40.15
2022-08-04T11:58:30.156Z,40.27
2022-08-04T11:59:31.579Z,40.34
2022-08-04T12:00:30.189Z,40.33
2022-08-04T12:01:30.179Z,40.32
2022-08-04T12:02:30.296Z,40.37
2022-08-04T12:03:30.141Z,40.42
2022-08-04T12:04:30.110Z,40.43
2022-08-04T12:05:37.268Z,40.43
2022-08-04T12:06:32.524Z,40.44
2022-08-04T12:07:31.624Z,40.46
2022-08-04T12:08:30.101Z,40.50
2022-08-04T12:09:30.731Z,40.56
2022-08-04T12:10:42.233Z,40.64
2022-08-04T12:11:31.713Z,40.77
2022-08-04T12:12:30.704Z,40.89
2022-08-04T12:13:30.694Z,41.01
2022-08-04T12:14:30.673Z,41.11
2022-08-04T12:15:30.679Z,41.18
2022-08-04T12:16:32.430Z,41.21
2022-08-04T12:17:34.470Z,41.25
2022-08-04T12:18:32.131Z,41.24
2022-08-04T12:19:34.935Z,41.21
2022-08-04T12:20:31.835Z,41.12
2022-08-04T12:21:32.863Z,41.02
2022-08-04T12:22:32.068Z,40.89
2022-08-04T12:23:29.968Z,40.77
2022-08-04T12:24:30.578Z,40.66
2022-08-04T12:25:30.576Z,40.57
2022-08-04T12:26:32.357Z,40.51
2022-08-04T12:27:31.000Z,40.43
2022-08-04T12:28:46.404Z,40.33
2022-08-04T12:29:30.864Z,40.21
2022-08-04T12:30:57.178Z,40.06
2022-08-04T12:31:32.325Z,39.93
2022-08-04T12:32:30.519Z,39.82
2022-08-04T12:34:03.841Z,39.72
2022-08-04T12:34:32.638Z,39.59
2022-08-04T12:35:30.477Z,39.43
2022-08-04T12:36:30.465Z,39.25
2022-08-04T12:37:32.303Z,39.07
2022-08-04T12:38:30.444Z,38.90
2022-08-04T12:39:30.501Z,38.72
2022-08-04T12:40:31.407Z,38.55
2022-08-04T12:41:30.407Z,38.39
2022-08-04T12:42:30.745Z,38.26
2022-08-04T12:43:30.387Z,38.09
2022-08-04T12:44:36.914Z,37.92
2022-08-04T12:45:32.614Z,37.74
2022-08-04T12:46:29.709Z,37.56
2022-08-04T12:47:29.783Z,37.35
2022-08-04T12:48:30.341Z,37.16
2022-08-04T12:49:31.587Z,36.98
2022-08-04T12:50:30.327Z,36.79
2022-08-04T12:52:06.555Z,36.63
2022-08-04T12:53:32.551Z,36.30